createdAt,value
2018-12-09T00:00:08.765Z,98320.00
2018-12-09T00:02:36.931Z,98310.00
2018-12-09T00:05:06.444Z,98302.00
2018-12-09T00:07:34.643Z,98310.00
2018-12-09T00:10:02.960Z,98295.00
2018-12-09T00:12:31.162Z,98291.00
2018-12-09T00:14:59.367Z,98315.00
2018-12-09T00:17:28.501Z,98308.00
2018-12-09T00:19:56.715Z,98298.00
2018-12-09T00:22:24.897Z,98295.00
2018-12-09T00:24:53.123Z,98298.00
2018-12-09T00:27:21.428Z,98294.00
2018-12-09T00:29:49.610Z,98295.00
2018-12-09T00:32:17.777Z,98305.00
2018-12-09T00:34:45.961Z,98292.00
2018-12-09T00:37:14.871Z,98289.00
2018-12-09T00:39:43.837Z,98294.00
2018-12-09T00:42:12.042Z,98285.00
2018-12-09T00:44:42.119Z,98300.00
2018-12-09T00:47:10.314Z,98303.00
2018-12-09T00:49:38.709Z,98302.00
2018-12-09T00:52:06.890Z,98302.00
2018-12-09T00:54:35.075Z,98300.00
2018-12-09T00:57:03.354Z,98285.00
2018-12-09T00:59:31.584Z,98300.00
2018-12-09T01:02:01.792Z,98292.00
2018-12-09T01:04:30.058Z,98292.00
2018-12-09T01:06:58.615Z,98294.00
2018-12-09T01:09:26.827Z,98282.00
2018-12-09T01:11:55.958Z,98308.00
2018-12-09T01:14:24.719Z,98292.00
2018-12-09T01:16:53.493Z,98313.00
2018-12-09T01:19:21.677Z,98299.00
2018-12-09T01:21:49.863Z,98309.00
2018-12-09T01:24:18.045Z,98310.00
2018-12-09T01:26:46.221Z,98301.00
2018-12-09T01:29:14.429Z,98294.00
2018-12-09T01:31:43.636Z,98282.00
2018-12-09T01:34:12.363Z,98291.00
2018-12-09T01:36:40.522Z,98282.00
2018-12-09T01:39:08.716Z,98267.00
2018-12-09T01:41:36.901Z,98268.00
2018-12-09T01:44:05.089Z,98271.00
2018-12-09T01:46:33.449Z,98251.00
2018-12-09T01:49:01.632Z,98258.00
2018-12-09T01:51:29.825Z,98267.00
2018-12-09T01:54:10.297Z,98264.00
2018-12-09T01:56:39.980Z,98282.00
2018-12-09T01:59:08.228Z,98284.00
2018-12-09T02:01:36.420Z,98285.00
2018-12-09T02:04:04.956Z,98267.00
2018-12-09T02:06:33.866Z,98271.00
2018-12-09T02:09:02.046Z,98263.00
2018-12-09T02:11:30.327Z,98299.00
2018-12-09T02:13:58.681Z,98285.00
2018-12-09T02:16:27.204Z,98300.00
2018-12-09T02:19:11.898Z,98285.00
2018-12-09T02:21:40.092Z,98301.00
2018-12-09T02:24:09.082Z,98297.00
2018-12-09T02:26:37.362Z,98304.00
2018-12-09T02:29:05.547Z,98306.00
2018-12-09T02:31:33.718Z,98296.00
2018-12-09T02:34:01.896Z,98305.00
2018-12-09T02:36:30.402Z,98299.00
2018-12-09T02:38:58.599Z,98292.00
2018-12-09T02:41:26.768Z,98284.00
2018-12-09T02:43:54.976Z,98297.00
2018-12-09T02:46:23.474Z,98293.00
2018-12-09T02:48:52.053Z,98280.00
2018-12-09T02:51:20.370Z,98294.00
2018-12-09T02:53:48.541Z,98289.00
2018-12-09T02:56:16.820Z,98292.00
2018-12-09T02:58:45.328Z,98291.00
2018-12-09T03:01:13.514Z,98294.00
2018-12-09T03:03:41.694Z,98306.00
2018-12-09T03:06:10.811Z,98304.00
2018-12-09T03:08:39.219Z,98298.00
2018-12-09T03:11:08.522Z,98306.00
2018-12-09T03:13:36.721Z,98305.00
2018-12-09T03:16:05.133Z,98326.00
2018-12-09T03:18:33.304Z,98312.00
2018-12-09T03:21:01.500Z,98312.00
2018-12-09T03:23:29.680Z,98314.00
2018-12-09T03:25:58.838Z,98313.00
2018-12-09T03:28:27.413Z,98320.00
2018-12-09T03:30:55.575Z,98311.00
2018-12-09T03:33:24.955Z,98308.00
2018-12-09T03:35:53.132Z,98311.00
2018-12-09T03:38:21.319Z,98318.00
2018-12-09T03:40:49.487Z,98318.00
2018-12-09T03:43:17.664Z,98327.00
2018-12-09T03:45:45.809Z,98335.00
2018-12-09T03:48:13.973Z,98339.00
2018-12-09T03:50:42.150Z,98344.00
2018-12-09T03:53:10.320Z,98346.00
2018-12-09T03:55:38.756Z,98344.00
2018-12-09T03:58:06.929Z,98348.00
2018-12-09T04:00:35.083Z,98353.00
2018-12-09T04:03:04.105Z,98356.00
2018-12-09T04:05:32.281Z,98360.00
2018-12-09T04:08:00.433Z,98365.00
2018-12-09T04:10:28.599Z,98355.00
2018-12-09T04:12:56.770Z,98365.00
2018-12-09T04:15:24.944Z,98368.00
2018-12-09T04:17:53.220Z,98371.00
2018-12-09T04:20:21.828Z,98366.00
2018-12-09T04:22:49.991Z,98370.00
2018-12-09T04:25:18.154Z,98372.00
2018-12-09T04:27:46.393Z,98382.00
2018-12-09T04:30:14.553Z,98385.00
2018-12-09T04:32:43.017Z,98390.00
2018-12-09T04:35:11.185Z,98395.00
2018-12-09T04:37:39.336Z,98409.00
2018-12-09T04:40:08.748Z,98401.00
2018-12-09T04:42:37.233Z,98404.00
2018-12-09T04:45:05.951Z,98390.00
2018-12-09T04:47:34.103Z,98400.00
2018-12-09T04:50:02.288Z,98412.00
2018-12-09T04:52:30.457Z,98406.00
2018-12-09T04:54:58.614Z,98429.00
2018-12-09T04:57:26.786Z,98427.00
2018-12-09T05:00:09.062Z,98444.00
2018-12-09T05:02:37.247Z,98440.00
2018-12-09T05:05:06.043Z,98440.00
2018-12-09T05:07:34.276Z,98455.00
2018-12-09T05:10:02.699Z,98451.00
2018-12-09T05:12:30.870Z,98465.00
2018-12-09T05:14:59.043Z,98465.00
2018-12-09T05:17:27.738Z,98463.00
2018-12-09T05:19:55.915Z,98462.00
2018-12-09T05:22:24.082Z,98472.00
2018-12-09T05:24:52.268Z,98470.00
2018-12-09T05:27:20.445Z,98476.00
2018-12-09T05:29:48.631Z,98476.00
2018-12-09T05:32:16.814Z,98484.00
2018-12-09T05:34:44.985Z,98482.00
2018-12-09T05:37:13.137Z,98476.00
2018-12-09T05:39:41.423Z,98487.00
2018-12-09T05:42:09.591Z,98502.00
2018-12-09T05:44:37.755Z,98508.00
2018-12-09T05:47:06.056Z,98517.00
2018-12-09T05:49:34.230Z,98543.00
2018-12-09T05:52:02.399Z,98528.00
2018-12-09T05:54:30.594Z,98529.00
2018-12-09T05:56:58.744Z,98531.00
2018-12-09T05:59:26.923Z,98535.00
2018-12-09T06:02:09.042Z,98542.00
2018-12-09T06:04:37.217Z,98549.00
2018-12-09T06:07:05.379Z,98556.00
2018-12-09T06:09:33.708Z,98547.00
2018-12-09T06:12:01.964Z,98560.00
2018-12-09T06:14:30.218Z,98570.00
2018-12-09T06:16:58.739Z,98579.00
2018-12-09T06:19:26.884Z,98573.00
2018-12-09T06:21:55.091Z,98585.00
2018-12-09T06:24:23.523Z,98590.00
2018-12-09T06:26:52.223Z,98599.00
2018-12-09T06:29:20.418Z,98611.00
2018-12-09T06:31:48.701Z,98605.00
2018-12-09T06:34:16.858Z,98607.00
2018-12-09T06:36:45.031Z,98608.00
2018-12-09T06:39:13.752Z,98634.00
2018-12-09T06:41:41.909Z,98637.00
2018-12-09T06:44:10.071Z,98649.00
2018-12-09T06:46:38.371Z,98651.00
2018-12-09T06:49:06.529Z,98660.00
2018-12-09T06:51:35.044Z,98661.00
2018-12-09T06:54:03.227Z,98669.00
2018-12-09T06:56:31.372Z,98681.00
2018-12-09T06:58:59.574Z,98691.00
2018-12-09T07:01:27.755Z,98695.00
2018-12-09T07:03:56.535Z,98689.00
2018-12-09T07:06:24.718Z,98696.00
2018-12-09T07:08:52.895Z,98704.00
2018-12-09T07:11:21.063Z,98697.00
2018-12-09T07:13:49.240Z,98728.00
2018-12-09T07:16:17.419Z,98724.00
2018-12-09T07:18:45.589Z,98733.00
2018-12-09T07:21:13.765Z,98749.00
2018-12-09T07:23:41.940Z,98757.00
2018-12-09T07:26:10.254Z,98751.00
2018-12-09T07:28:38.420Z,98775.00
2018-12-09T07:31:06.628Z,98777.00
2018-12-09T07:33:34.831Z,98787.00
2018-12-09T07:36:03.006Z,98798.00
2018-12-09T07:38:31.202Z,98811.00
2018-12-09T07:40:59.390Z,98825.00
2018-12-09T07:43:27.552Z,98823.00
2018-12-09T07:45:55.743Z,98851.00
2018-12-09T07:48:23.912Z,98842.00
2018-12-09T07:50:52.080Z,98859.00
2018-12-09T07:53:20.257Z,98869.00
2018-12-09T07:55:48.424Z,98871.00
2018-12-09T07:58:16.883Z,98875.00
2018-12-09T08:00:45.044Z,98881.00
2018-12-09T08:03:13.204Z,98888.00
2018-12-09T08:05:41.385Z,98895.00
2018-12-09T08:08:09.582Z,98907.00
2018-12-09T08:10:37.738Z,98905.00
2018-12-09T08:13:05.903Z,98939.00
2018-12-09T08:15:34.131Z,98938.00
2018-12-09T08:18:02.291Z,98948.00
2018-12-09T08:20:30.460Z,98963.00
2018-12-09T08:22:58.642Z,98982.00
2018-12-09T08:25:26.829Z,98992.00
2018-12-09T08:27:54.977Z,99003.00
2018-12-09T08:30:23.146Z,99014.00
2018-12-09T08:32:51.326Z,99027.00
2018-12-09T08:35:19.469Z,99037.00
2018-12-09T08:37:47.670Z,99051.00
2018-12-09T08:40:15.833Z,99064.00
2018-12-09T08:42:44.005Z,99065.00
2018-12-09T08:45:12.193Z,98995.00
2018-12-09T08:47:40.337Z,99064.00
2018-12-09T08:50:08.574Z,99081.00
2018-12-09T08:52:36.767Z,99093.00
2018-12-09T08:55:05.156Z,99091.00
2018-12-09T08:57:33.327Z,99115.00
2018-12-09T09:00:01.520Z,99115.00
2018-12-09T09:02:29.707Z,99128.00
2018-12-09T09:04:57.940Z,99122.00
2018-12-09T09:07:26.123Z,99139.00
2018-12-09T09:09:54.295Z,99147.00
2018-12-09T09:12:22.728Z,99144.00
2018-12-09T09:14:50.915Z,99173.00
2018-12-09T09:17:19.180Z,99185.00
2018-12-09T09:19:47.322Z,99188.00
2018-12-09T09:22:15.504Z,99213.00
2018-12-09T09:24:43.653Z,99213.00
2018-12-09T09:27:11.820Z,99213.00
2018-12-09T09:29:39.980Z,99228.00
2018-12-09T09:32:08.152Z,99236.00
2018-12-09T09:34:36.348Z,99231.00
2018-12-09T09:37:04.533Z,99240.00
2018-12-09T09:39:32.712Z,99241.00
2018-12-09T09:42:00.856Z,99254.00
2018-12-09T09:44:29.027Z,99275.00
2018-12-09T09:46:57.196Z,99281.00
2018-12-09T09:49:25.366Z,99284.00
2018-12-09T09:51:53.589Z,99294.00
2018-12-09T09:54:21.768Z,99311.00
2018-12-09T09:56:50.108Z,99317.00
2018-12-09T09:59:18.292Z,99327.00
2018-12-09T10:01:46.470Z,99338.00
2018-12-09T10:04:14.668Z,99349.00
2018-12-09T10:06:42.837Z,99358.00
2018-12-09T10:09:11.010Z,99369.00
2018-12-09T10:11:39.252Z,99368.00
2018-12-09T10:14:07.594Z,99382.00
2018-12-09T10:16:35.789Z,99385.00
2018-12-09T10:19:03.941Z,99389.00
2018-12-09T10:21:32.099Z,99397.00
2018-12-09T10:24:00.263Z,99389.00
2018-12-09T10:26:36.236Z,99407.00
2018-12-09T10:28:58.641Z,99424.00
2018-12-09T10:31:26.823Z,99426.00
2018-12-09T10:33:55.024Z,99425.00
2018-12-09T10:36:23.418Z,99429.00
2018-12-09T10:38:51.663Z,99448.00
2018-12-09T10:41:19.808Z,99440.00
2018-12-09T10:43:47.968Z,99448.00
2018-12-09T10:46:16.159Z,99466.00
2018-12-09T10:48:44.301Z,99466.00
2018-12-09T10:51:12.549Z,99486.00
2018-12-09T10:53:40.715Z,99483.00
2018-12-09T10:56:08.895Z,99492.00
2018-12-09T10:58:37.782Z,99495.00
2018-12-09T11:01:09.218Z,99496.00
2018-12-09T11:03:38.425Z,99490.00
2018-12-09T11:06:08.007Z,99508.00
2018-12-09T11:08:37.859Z,99499.00
2018-12-09T11:11:06.518Z,99507.00
2018-12-09T11:13:36.781Z,99520.00
2018-12-09T11:16:05.497Z,99521.00
2018-12-09T11:18:34.492Z,99527.00
2018-12-09T11:21:03.434Z,99529.00
2018-12-09T11:23:31.891Z,99538.00
2018-12-09T11:26:00.940Z,99552.00
2018-12-09T11:28:30.466Z,99547.00
2018-12-09T11:30:59.927Z,99545.00
2018-12-09T11:33:29.559Z,99557.00
2018-12-09T11:35:58.376Z,99563.00
2018-12-09T11:38:27.297Z,99564.00
2018-12-09T11:40:56.709Z,99583.00
2018-12-09T11:43:24.917Z,99573.00
2018-12-09T11:45:53.705Z,99594.00
2018-12-09T11:48:23.223Z,99604.00
2018-12-09T11:50:52.626Z,99601.00
2018-12-09T11:53:22.226Z,99586.00
2018-12-09T11:55:50.871Z,99606.00
2018-12-09T11:58:20.561Z,99605.00
2018-12-09T12:00:50.146Z,99604.00
2018-12-09T12:03:19.120Z,99617.00
2018-12-09T12:05:48.522Z,99620.00
2018-12-09T12:08:17.646Z,99624.00
2018-12-09T12:10:46.647Z,99634.00
2018-12-09T12:13:16.418Z,99626.00
2018-12-09T12:15:47.157Z,99631.00
2018-12-09T12:18:17.272Z,99625.00
2018-12-09T12:20:46.407Z,99639.00
2018-12-09T12:23:16.141Z,99656.00
2018-12-09T12:25:45.181Z,99654.00
2018-12-09T12:28:15.398Z,99670.00
2018-12-09T12:30:44.210Z,99662.00
2018-12-09T12:33:13.404Z,99673.00
2018-12-09T12:35:42.865Z,99680.00
2018-12-09T12:38:12.697Z,99687.00
2018-12-09T12:40:42.362Z,99681.00
2018-12-09T12:43:11.688Z,99691.00
2018-12-09T12:45:40.606Z,99693.00
2018-12-09T12:48:10.473Z,99696.00
2018-12-09T12:50:39.702Z,99704.00
2018-12-09T12:53:09.002Z,99703.00
2018-12-09T12:55:37.991Z,99705.00
2018-12-09T12:58:07.313Z,99713.00
2018-12-09T13:00:36.814Z,99723.00
2018-12-09T13:03:06.204Z,99718.00
2018-12-09T13:05:36.086Z,99723.00
2018-12-09T13:08:05.130Z,99726.00
2018-12-09T13:10:34.349Z,99739.00
2018-12-09T13:13:03.908Z,99742.00
2018-12-09T13:15:33.653Z,99754.00
2018-12-09T13:18:02.745Z,99762.00
2018-12-09T13:20:31.701Z,99764.00
2018-12-09T13:23:02.073Z,99774.00
2018-12-09T13:25:31.596Z,99776.00
2018-12-09T13:28:00.480Z,99794.00
2018-12-09T13:30:29.248Z,99790.00
2018-12-09T13:32:57.481Z,99805.00
2018-12-09T13:35:25.656Z,99744.00
2018-12-09T13:37:53.802Z,99788.00
2018-12-09T13:40:21.959Z,99798.00
2018-12-09T13:42:50.143Z,99799.00
2018-12-09T13:45:18.505Z,99808.00
2018-12-09T13:47:46.837Z,99827.00
2018-12-09T13:50:15.446Z,99757.00
2018-12-09T13:52:43.738Z,99843.00
2018-12-09T13:55:11.947Z,99846.00
2018-12-09T13:57:40.127Z,99852.00
2018-12-09T14:00:10.037Z,99869.00
2018-12-09T14:02:38.235Z,99866.00
2018-12-09T14:05:06.546Z,99865.00
2018-12-09T14:07:34.730Z,99879.00
2018-12-09T14:10:02.904Z,99881.00
2018-12-09T14:12:31.116Z,99881.00
2018-12-09T14:14:59.282Z,99884.00
2018-12-09T14:17:28.383Z,99887.00
2018-12-09T14:19:56.726Z,99912.00
2018-12-09T14:22:24.905Z,99915.00
2018-12-09T14:24:53.080Z,99918.00
2018-12-09T14:27:21.367Z,99928.00
2018-12-09T14:29:49.539Z,99938.00
2018-12-09T14:32:18.122Z,99956.00
2018-12-09T14:34:46.384Z,99964.00
2018-12-09T14:37:15.518Z,99963.00
2018-12-09T14:39:43.712Z,99982.00
2018-12-09T14:42:11.861Z,99989.00
2018-12-09T14:44:40.088Z,99995.00
2018-12-09T14:47:08.240Z,100000.00
2018-12-09T14:49:36.425Z,100001.00
2018-12-09T14:52:04.598Z,100031.00
2018-12-09T14:54:32.803Z,100025.00
2018-12-09T14:59:35.536Z,100021.00
2018-12-09T15:02:03.879Z,100037.00
2018-12-09T15:04:32.066Z,100040.00
2018-12-09T15:07:00.255Z,100046.00
2018-12-09T15:09:28.433Z,100052.00
2018-12-09T15:11:56.747Z,100058.00
2018-12-09T15:14:24.969Z,100060.00
2018-12-09T15:16:53.156Z,100063.00
2018-12-09T15:19:21.457Z,100073.00
2018-12-09T15:21:50.506Z,100082.00
2018-12-09T15:24:18.679Z,100085.00
2018-12-09T15:26:46.830Z,100095.00
2018-12-09T15:29:15.027Z,100104.00
2018-12-09T15:31:43.177Z,100108.00
2018-12-09T15:34:11.405Z,100125.00
2018-12-09T15:36:39.592Z,100131.00
2018-12-09T15:39:07.984Z,100138.00
2018-12-09T15:41:36.152Z,100154.00
2018-12-09T15:44:04.359Z,100150.00
2018-12-09T15:46:32.529Z,100150.00
2018-12-09T15:49:00.685Z,100169.00
2018-12-09T15:51:28.887Z,100160.00
2018-12-09T15:53:58.340Z,100162.00
2018-12-09T15:56:26.484Z,100171.00
2018-12-09T15:58:54.675Z,100180.00
2018-12-09T16:01:22.861Z,100188.00
2018-12-09T16:03:51.045Z,100182.00
2018-12-09T16:06:19.230Z,100179.00
2018-12-09T16:08:47.428Z,100180.00
2018-12-09T16:11:15.598Z,100192.00
2018-12-09T16:13:44.433Z,100188.00
2018-12-09T16:16:13.284Z,100196.00
2018-12-09T16:18:41.457Z,100211.00
2018-12-09T16:21:09.636Z,100227.00
2018-12-09T16:23:37.963Z,100228.00
2018-12-09T16:26:06.108Z,100233.00
2018-12-09T16:28:34.267Z,100227.00
2018-12-09T16:31:02.596Z,100228.00
2018-12-09T16:33:32.416Z,100247.00
2018-12-09T16:36:00.593Z,100245.00
2018-12-09T16:38:28.773Z,100260.00
2018-12-09T16:40:56.952Z,100269.00
2018-12-09T16:43:26.000Z,100269.00
2018-12-09T16:45:54.213Z,100278.00
2018-12-09T16:48:22.414Z,100274.00
2018-12-09T16:50:50.567Z,100272.00
2018-12-09T16:53:18.773Z,100274.00
2018-12-09T16:55:46.939Z,100277.00
2018-12-09T16:58:15.118Z,100284.00
2018-12-09T17:00:43.320Z,100291.00
2018-12-09T17:03:12.416Z,100294.00
2018-12-09T17:05:40.999Z,100295.00
2018-12-09T17:08:09.180Z,100298.00
2018-12-09T17:10:37.326Z,100305.00
2018-12-09T17:13:05.486Z,100311.00
2018-12-09T17:15:33.667Z,100316.00
2018-12-09T17:18:01.836Z,100325.00
2018-12-09T17:20:29.987Z,100334.00
2018-12-09T17:22:59.831Z,100351.00
2018-12-09T17:25:28.011Z,100358.00
2018-12-09T17:27:56.306Z,100352.00
2018-12-09T17:30:24.506Z,100355.00
2018-12-09T17:32:52.660Z,100362.00
2018-12-09T17:35:20.825Z,100370.00
2018-12-09T17:37:49.000Z,100369.00
2018-12-09T17:40:17.181Z,100384.00
2018-12-09T17:42:45.349Z,100375.00
2018-12-09T17:45:13.527Z,100364.00
2018-12-09T17:47:41.701Z,100378.00
2018-12-09T17:50:09.885Z,100381.00
2018-12-09T17:52:38.076Z,100389.00
2018-12-09T17:55:06.283Z,100387.00
2018-12-09T17:57:34.489Z,100393.00
2018-12-09T18:00:02.784Z,100405.00
2018-12-09T18:02:30.951Z,100407.00
2018-12-09T18:04:59.118Z,100409.00
2018-12-09T18:07:27.439Z,100412.00
2018-12-09T18:09:55.619Z,100416.00
2018-12-09T18:12:23.801Z,100418.00
2018-12-09T18:14:51.997Z,100418.00
2018-12-09T18:17:20.183Z,100429.00
2018-12-09T18:19:48.350Z,100447.00
2018-12-09T18:22:17.393Z,100454.00
2018-12-09T18:24:46.120Z,100457.00
2018-12-09T18:27:14.325Z,100459.00
2018-12-09T18:29:42.767Z,100457.00
2018-12-09T18:32:11.058Z,100451.00
2018-12-09T18:34:39.248Z,100454.00
2018-12-09T18:37:07.888Z,100456.00
2018-12-09T18:39:36.405Z,100467.00
2018-12-09T18:42:04.565Z,100473.00
2018-12-09T18:44:32.757Z,100469.00
2018-12-09T18:47:00.949Z,100478.00
2018-12-09T18:49:29.128Z,100495.00
2018-12-09T18:51:57.310Z,100492.00
2018-12-09T18:54:25.528Z,100496.00
2018-12-09T18:56:53.718Z,100505.00
2018-12-09T18:59:22.208Z,100508.00
2018-12-09T19:01:50.383Z,100502.00
2018-12-09T19:04:18.536Z,100515.00
2018-12-09T19:06:46.717Z,100530.00
2018-12-09T19:09:14.882Z,100535.00
2018-12-09T19:11:43.555Z,100532.00
2018-12-09T19:14:11.755Z,100538.00
2018-12-09T19:16:39.954Z,100546.00
2018-12-09T19:19:08.112Z,100548.00
2018-12-09T19:21:36.285Z,100544.00
2018-12-09T19:24:04.468Z,100550.00
2018-12-09T19:26:32.648Z,100560.00
2018-12-09T19:29:01.287Z,100560.00
2018-12-09T19:31:29.965Z,100560.00
2018-12-09T19:33:58.151Z,100561.00
2018-12-09T19:36:26.530Z,100579.00
2018-12-09T19:38:54.679Z,100568.00
2018-12-09T19:41:22.857Z,100571.00
2018-12-09T19:43:52.006Z,100558.00
2018-12-09T19:46:20.195Z,100569.00
2018-12-09T19:48:48.388Z,100569.00
2018-12-09T19:51:16.662Z,100572.00
2018-12-09T19:53:44.860Z,100581.00
2018-12-09T19:56:13.038Z,100573.00
2018-12-09T19:58:41.217Z,100590.00
2018-12-09T20:01:09.966Z,100587.00
2018-12-09T20:03:38.145Z,100579.00
2018-12-09T20:06:06.979Z,100582.00
2018-12-09T20:08:35.186Z,100581.00
2018-12-09T20:11:03.361Z,100587.00
2018-12-09T20:13:31.536Z,100577.00
2018-12-09T20:16:00.253Z,100571.00
2018-12-09T20:18:28.426Z,100580.00
2018-12-09T20:20:57.324Z,100598.00
2018-12-09T20:23:25.533Z,100607.00
2018-12-09T20:25:53.765Z,100598.00
2018-12-09T20:28:21.909Z,100595.00
2018-12-09T20:30:50.907Z,100596.00
2018-12-09T20:33:19.084Z,100608.00
2018-12-09T20:35:47.427Z,100604.00
2018-12-09T20:38:16.633Z,100608.00
2018-12-09T20:40:44.797Z,100616.00
2018-12-09T20:43:12.970Z,100618.00
2018-12-09T20:45:41.191Z,100617.00
2018-12-09T20:48:13.621Z,100628.00
2018-12-09T20:50:40.393Z,100631.00
2018-12-09T20:53:08.608Z,100620.00
2018-12-09T20:55:37.107Z,100629.00
2018-12-09T20:58:05.562Z,100637.00
2018-12-09T21:00:33.761Z,100644.00
2018-12-09T21:03:01.938Z,100645.00
2018-12-09T21:05:30.119Z,100654.00
2018-12-09T21:07:58.298Z,100658.00
2018-12-09T21:10:26.478Z,100659.00
2018-12-09T21:12:54.704Z,100658.00
2018-12-09T21:15:22.917Z,100670.00
2018-12-09T21:17:51.088Z,100678.00
2018-12-09T21:20:19.237Z,100674.00
2018-12-09T21:22:47.411Z,100683.00
2018-12-09T21:25:15.585Z,100675.00
2018-12-09T21:27:43.744Z,100672.00
2018-12-09T21:30:12.700Z,100683.00
2018-12-09T21:32:40.878Z,100690.00
2018-12-09T21:35:09.111Z,100621.00
2018-12-09T21:37:37.410Z,100685.00
2018-12-09T21:40:07.246Z,100697.00
2018-12-09T21:42:35.403Z,100704.00
2018-12-09T21:45:04.618Z,100708.00
2018-12-09T21:47:32.769Z,100709.00
2018-12-09T21:50:00.936Z,100710.00
2018-12-09T21:52:29.111Z,100709.00
2018-12-09T21:54:57.300Z,100708.00
2018-12-09T21:57:25.467Z,100716.00
2018-12-09T21:59:53.662Z,100722.00
2018-12-09T22:02:22.226Z,100711.00
2018-12-09T22:04:50.374Z,100720.00
2018-12-09T22:07:18.533Z,100719.00
2018-12-09T22:09:46.709Z,100726.00
2018-12-09T22:12:16.561Z,100716.00
2018-12-09T22:14:44.724Z,100722.00
2018-12-09T22:17:12.893Z,100727.00
2018-12-09T22:19:41.046Z,100731.00
2018-12-09T22:22:09.339Z,100730.00
2018-12-09T22:24:37.525Z,100732.00
2018-12-09T22:27:05.678Z,100735.00
2018-12-09T22:29:33.843Z,100723.00
2018-12-09T22:32:02.311Z,100722.00
2018-12-09T22:34:31.280Z,100725.00
2018-12-09T22:36:59.468Z,100728.00
2018-12-09T22:39:27.648Z,100735.00
2018-12-09T22:41:55.824Z,100743.00
2018-12-09T22:44:24.013Z,100741.00
2018-12-09T22:46:52.174Z,100744.00
2018-12-09T22:49:20.322Z,100744.00
2018-12-09T22:51:48.498Z,100752.00
2018-12-09T22:54:18.022Z,100741.00
2018-12-09T22:56:46.538Z,100753.00
2018-12-09T22:59:14.702Z,100753.00
2018-12-09T23:04:30.850Z,100754.00
2018-12-09T23:07:01.027Z,100759.00
2018-12-09T23:09:29.182Z,100760.00
2018-12-09T23:11:57.393Z,100784.00
2018-12-09T23:14:25.565Z,100763.00
2018-12-09T23:16:54.052Z,100776.00
2018-12-09T23:19:22.259Z,100783.00
2018-12-09T23:21:50.397Z,100777.00
2018-12-09T23:24:18.603Z,100784.00
2018-12-09T23:26:46.799Z,100777.00
2018-12-09T23:29:14.963Z,100785.00
2018-12-09T23:31:43.289Z,100792.00
2018-12-09T23:34:11.460Z,100788.00
2018-12-09T23:36:39.615Z,100793.00
2018-12-09T23:39:07.784Z,100796.00
2018-12-09T23:41:35.954Z,100797.00
2018-12-09T23:44:04.222Z,100808.00
2018-12-09T23:46:32.494Z,100806.00
2018-12-09T23:49:00.683Z,100810.00
2018-12-09T23:51:29.177Z,100817.00
2018-12-09T23:53:57.679Z,100826.00
2018-12-09T23:56:25.913Z,100828.00
2018-12-09T23:58:54.092Z,100838.00
